Time;durP1;ratioP1;P1;durP2;ratioP2;P2;SDS_P1;SDS_P2;PMS_P1;PMS_P2;Temp;Humidity;BMP_temperature;BMP_pressure;BME280_temperature;BME280_humidity;BME280_pressure;Samples;Min_cycle;Max_cycle;Signal;HPM_P1;HPM_P2
2021/10/23 00:01:11;;;;;;;7.10;3.30;;;5.60;99.90;;;;;;6329286;22;20043;-87
2021/10/23 00:04:01;;;;;;;10.80;3.38;;;5.60;99.90;;;;;;6296650;22;20251;-87
2021/10/23 00:06:49;;;;;;;7.15;3.20;;;5.60;99.90;;;;;;6294534;22;20023;-86
2021/10/23 00:09:36;;;;;;;12.75;3.63;;;5.70;99.90;;;;;;6314747;22;20019;-85
2021/10/23 00:12:24;;;;;;;10.57;2.72;;;5.70;99.90;;;;;;6289491;22;20027;-86
2021/10/23 00:15:11;;;;;;;8.57;3.35;;;5.70;99.90;;;;;;6283788;22;20090;-84
2021/10/23 00:18:03;;;;;;;10.50;3.10;;;5.70;99.90;;;;;;6263955;22;20121;-84
2021/10/23 00:20:51;;;;;;;10.40;3.65;;;5.70;99.90;;;;;;6305159;22;20352;-86
2021/10/23 00:23:38;;;;;;;11.85;3.50;;;5.70;99.90;;;;;;6266818;22;20039;-86
2021/10/23 00:26:29;;;;;;;7.38;3.33;;;5.70;99.90;;;;;;6283393;22;20027;-88
2021/10/23 00:29:17;;;;;;;6.53;2.67;;;5.70;99.90;;;;;;6285112;22;20035;-89
2021/10/23 00:32:04;;;;;;;7.57;3.30;;;5.80;99.90;;;;;;6284954;22;20023;-87
2021/10/23 00:34:52;;;;;;;7.68;3.03;;;5.80;99.90;;;;;;6283592;22;20317;-86
2021/10/23 00:37:39;;;;;;;9.63;3.20;;;5.80;99.90;;;;;;6290815;22;20414;-86
2021/10/23 00:40:27;;;;;;;8.13;2.97;;;5.80;99.90;;;;;;6295191;22;20077;-87
2021/10/23 00:43:14;;;;;;;9.90;3.40;;;5.90;99.90;;;;;;6293642;22;20030;-87
2021/10/23 00:46:04;;;;;;;10.93;3.65;;;5.90;99.90;;;;;;6295046;22;20039;-88
2021/10/23 00:48:52;;;;;;;9.77;3.63;;;5.90;99.90;;;;;;6318887;22;20039;-84
2021/10/23 00:51:40;;;;;;;7.70;2.95;;;5.90;99.90;;;;;;6296465;22;20095;-84
2021/10/23 00:54:30;;;;;;;7.38;3.05;;;5.90;99.90;;;;;;6300328;22;20053;-87
2021/10/23 00:57:18;;;;;;;8.07;3.20;;;5.90;99.90;;;;;;6304209;22;20027;-86
2021/10/23 01:00:07;;;;;;;12.77;3.00;;;5.90;99.90;;;;;;6318304;22;20069;-87
2021/10/23 01:02:54;;;;;;;8.95;2.88;;;5.90;99.90;;;;;;6318027;22;20027;-86
2021/10/23 01:05:44;;;;;;;8.45;2.85;;;6.00;99.90;;;;;;6297121;22;20027;-87
2021/10/23 01:08:33;;;;;;;10.23;3.28;;;6.00;99.90;;;;;;6317411;22;20030;-86
2021/10/23 01:11:21;;;;;;;9.40;3.08;;;6.00;99.90;;;;;;6289410;22;20064;-87
2021/10/23 01:14:17;;;;;;;5.35;3.10;;;6.00;99.90;;;;;;6284518;22;20027;-86
2021/10/23 01:17:04;;;;;;;11.55;3.15;;;6.00;99.90;;;;;;6285725;22;20027;-87
2021/10/23 01:19:56;;;;;;;16.63;3.30;;;6.00;99.90;;;;;;6286739;22;20031;-87
2021/10/23 01:22:47;;;;;;;9.82;2.97;;;6.00;99.90;;;;;;6287555;22;20031;-85
2021/10/23 01:25:35;;;;;;;7.28;3.08;;;6.00;99.90;;;;;;6308828;22;20035;-88
2021/10/23 01:28:22;;;;;;;11.82;4.10;;;6.00;99.90;;;;;;6263403;22;20045;-86
2021/10/23 01:31:11;;;;;;;9.23;3.10;;;6.00;99.90;;;;;;6284542;22;20421;-85
2021/10/23 01:33:59;;;;;;;11.07;3.10;;;6.00;99.90;;;;;;6308801;22;20042;-86
2021/10/23 01:36:52;;;;;;;7.07;2.55;;;6.10;99.90;;;;;;6309308;22;20100;-85
2021/10/23 01:39:39;;;;;;;11.38;3.53;;;6.10;99.90;;;;;;6285839;22;20099;-86
2021/10/23 01:42:26;;;;;;;7.72;2.85;;;6.10;99.90;;;;;;6266027;22;20089;-85
2021/10/23 01:45:16;;;;;;;12.60;2.85;;;6.10;99.90;;;;;;6308166;22;20406;-85
2021/10/23 01:48:06;;;;;;;13.40;3.10;;;6.10;99.90;;;;;;6286790;22;20019;-85
2021/10/23 01:50:54;;;;;;;11.52;2.80;;;6.00;99.90;;;;;;6290051;22;20024;-86
2021/10/23 01:53:41;;;;;;;19.23;3.42;;;6.00;99.90;;;;;;6287550;22;20023;-86
2021/10/23 01:56:31;;;;;;;13.30;3.40;;;6.10;99.90;;;;;;6325272;22;20011;-85
2021/10/23 01:59:21;;;;;;;9.27;3.10;;;6.00;99.90;;;;;;6325478;22;20023;-85
2021/10/23 02:02:08;;;;;;;11.52;4.15;;;6.00;99.90;;;;;;6318819;22;20038;-87
2021/10/23 02:05:00;;;;;;;12.48;3.58;;;6.00;99.90;;;;;;6317318;22;20033;-87
2021/10/23 02:07:50;;;;;;;10.48;3.35;;;6.00;99.90;;;;;;6319489;22;20081;-87
2021/10/23 02:10:39;;;;;;;7.80;3.13;;;6.00;99.90;;;;;;6319949;22;20038;-87
2021/10/23 02:13:27;;;;;;;11.73;3.65;;;6.00;99.90;;;;;;6297613;22;20027;-88
2021/10/23 02:16:17;;;;;;;10.90;3.90;;;6.00;99.90;;;;;;6318988;22;20080;-87
2021/10/23 02:19:06;;;;;;;11.18;3.67;;;6.00;99.90;;;;;;6320415;22;20035;-88
2021/10/23 02:21:56;;;;;;;11.70;3.35;;;6.00;99.90;;;;;;6299080;22;20027;-85
2021/10/23 02:24:44;;;;;;;8.43;3.45;;;6.00;99.90;;;;;;6325873;22;20043;-87
2021/10/23 02:27:34;;;;;;;8.98;3.53;;;5.90;99.90;;;;;;6315936;22;20098;-84
2021/10/23 02:30:21;;;;;;;6.75;3.30;;;5.90;99.90;;;;;;6317424;22;20034;-88
2021/10/23 02:33:14;;;;;;;11.00;3.35;;;5.90;99.90;;;;;;6288806;22;20022;-86
2021/10/23 02:36:02;;;;;;;7.85;3.78;;;5.90;99.90;;;;;;6309334;22;20349;-87
2021/10/23 02:38:49;;;;;;;7.90;3.00;;;5.90;99.90;;;;;;6311553;22;20074;-86
2021/10/23 02:41:39;;;;;;;11.88;3.35;;;6.00;99.90;;;;;;6301020;22;20043;-87
2021/10/23 02:44:26;;;;;;;10.38;2.90;;;6.00;99.90;;;;;;6322103;22;20023;-87
2021/10/23 02:47:14;;;;;;;12.63;3.72;;;6.10;99.90;;;;;;6297751;22;20116;-87
2021/10/23 02:50:04;;;;;;;11.00;3.45;;;6.00;99.90;;;;;;6323805;22;20129;-86
2021/10/23 02:52:51;;;;;;;9.32;3.15;;;6.00;99.90;;;;;;6330963;22;20053;-86
2021/10/23 02:55:44;;;;;;;14.82;3.97;;;6.00;99.90;;;;;;6296674;22;20023;-87
2021/10/23 02:58:31;;;;;;;11.98;3.78;;;6.00;99.90;;;;;;6298614;22;20024;-86
2021/10/23 03:01:23;;;;;;;8.80;3.20;;;6.00;99.90;;;;;;6319754;22;20023;-87
2021/10/23 03:04:11;;;;;;;10.95;3.85;;;6.00;99.90;;;;;;6312943;22;20038;-86
2021/10/23 03:06:58;;;;;;;10.07;3.08;;;6.00;99.90;;;;;;6267731;22;20088;-86
2021/10/23 03:09:48;;;;;;;10.63;3.75;;;6.00;99.90;;;;;;6286491;22;20034;-86
2021/10/23 03:12:35;;;;;;;8.57;3.65;;;6.00;99.90;;;;;;6289363;22;20023;-86
2021/10/23 03:15:22;;;;;;;12.25;4.22;;;6.00;99.90;;;;;;6289982;22;20090;-87
2021/10/23 03:18:11;;;;;;;8.98;3.58;;;6.00;99.90;;;;;;6289147;22;20031;-86
2021/10/23 03:20:58;;;;;;;15.88;4.05;;;6.00;99.90;;;;;;6289073;22;20108;-86
2021/10/23 03:23:50;;;;;;;10.65;4.43;;;6.00;99.90;;;;;;6310491;22;20053;-86
2021/10/23 03:26:38;;;;;;;11.00;4.47;;;6.00;99.90;;;;;;6308243;22;20027;-86
2021/10/23 03:29:25;;;;;;;15.52;4.28;;;6.00;99.90;;;;;;6287139;22;20092;-88
2021/10/23 03:32:12;;;;;;;9.77;3.95;;;6.00;99.90;;;;;;6311055;22;20020;-86
2021/10/23 03:35:04;;;;;;;10.27;4.07;;;6.10;99.90;;;;;;6287887;22;20049;-86
2021/10/23 03:37:53;;;;;;;10.52;3.55;;;6.10;99.90;;;;;;6312098;22;20334;-86
2021/10/23 03:40:44;;;;;;;15.93;4.10;;;6.10;99.90;;;;;;6310196;22;20034;-85
2021/10/23 03:43:32;;;;;;;9.55;3.53;;;6.10;99.90;;;;;;6309512;22;20031;-86
2021/10/23 03:46:19;;;;;;;9.35;4.25;;;6.10;99.90;;;;;;6309807;22;20030;-86
2021/10/23 03:49:06;;;;;;;7.50;4.22;;;6.10;99.90;;;;;;6290751;22;20023;-86
2021/10/23 03:51:53;;;;;;;10.05;3.75;;;6.10;99.90;;;;;;6309837;22;20414;-85
2021/10/23 03:54:41;;;;;;;10.55;3.55;;;6.10;99.90;;;;;;6310146;22;20047;-86
2021/10/23 03:57:31;;;;;;;9.60;4.30;;;6.10;99.90;;;;;;6265992;22;20128;-85
2021/10/23 04:00:19;;;;;;;7.85;3.60;;;6.10;99.90;;;;;;6308083;22;20027;-86
2021/10/23 04:03:06;;;;;;;10.75;3.65;;;6.10;99.90;;;;;;6313118;22;20058;-87
2021/10/23 04:05:54;;;;;;;10.50;3.42;;;6.10;99.90;;;;;;6313383;22;20058;-86
2021/10/23 04:08:47;;;;;;;5.32;3.10;;;6.10;99.90;;;;;;6313274;22;20019;-86
2021/10/23 04:11:41;;;;;;;9.07;3.72;;;6.10;99.90;;;;;;6290842;22;20034;-86
2021/10/23 04:14:30;;;;;;;8.75;3.20;;;6.10;99.90;;;;;;6288540;22;20045;-85
2021/10/23 04:17:18;;;;;;;10.32;3.70;;;6.10;99.90;;;;;;6288486;22;20043;-87
2021/10/23 04:20:06;;;;;;;8.13;3.45;;;6.00;99.90;;;;;;6265719;22;20047;-86
2021/10/23 04:22:53;;;;;;;10.98;3.60;;;6.10;99.90;;;;;;6310738;22;20361;-85
2021/10/23 04:25:43;;;;;;;16.15;4.50;;;6.00;99.90;;;;;;6288601;22;20100;-86
2021/10/23 04:28:32;;;;;;;11.55;3.58;;;6.00;99.90;;;;;;6322875;22;20023;-86
2021/10/23 04:31:20;;;;;;;13.02;4.45;;;6.00;99.90;;;;;;6285347;22;20301;-86
2021/10/23 04:34:12;;;;;;;12.40;3.78;;;6.00;99.90;;;;;;6263348;22;20050;-86
2021/10/23 04:37:02;;;;;;;16.90;3.85;;;6.00;99.90;;;;;;6309582;22;20089;-86
2021/10/23 04:39:49;;;;;;;9.82;4.05;;;6.00;99.90;;;;;;6315473;22;20088;-86
2021/10/23 04:42:37;;;;;;;12.35;3.90;;;5.90;99.90;;;;;;6298729;22;20042;-86
2021/10/23 04:45:25;;;;;;;7.25;3.60;;;5.80;99.90;;;;;;6324496;22;20050;-85
2021/10/23 04:48:17;;;;;;;10.48;4.50;;;5.80;99.90;;;;;;6322433;22;20031;-88
2021/10/23 04:51:07;;;;;;;11.50;4.40;;;5.80;99.90;;;;;;6327887;22;20085;-88
2021/10/23 04:53:55;;;;;;;11.20;3.33;;;5.80;99.90;;;;;;6324934;22;20075;-87
2021/10/23 04:56:43;;;;;;;9.13;3.95;;;5.80;99.90;;;;;;6320141;22;20030;-87
2021/10/23 04:59:30;;;;;;;7.88;3.60;;;5.80;99.90;;;;;;6318165;22;20035;-88
2021/10/23 05:02:19;;;;;;;8.10;3.90;;;5.80;99.90;;;;;;6277690;22;20159;-87
2021/10/23 05:05:14;;;;;;;9.93;4.15;;;5.70;99.90;;;;;;6288346;22;20108;-87
2021/10/23 05:08:04;;;;;;;9.50;3.97;;;5.70;99.90;;;;;;6305476;22;20055;-86
2021/10/23 05:10:54;;;;;;;13.82;3.78;;;5.70;99.90;;;;;;6306251;22;20043;-89
2021/10/23 05:13:42;;;;;;;9.13;3.42;;;5.70;99.90;;;;;;6308810;22;20112;-88
2021/10/23 05:16:34;;;;;;;9.95;3.90;;;5.70;99.90;;;;;;6308269;22;20179;-88
2021/10/23 05:19:22;;;;;;;9.80;3.95;;;5.70;99.90;;;;;;6307677;22;20161;-89
2021/10/23 05:22:09;;;;;;;15.38;4.40;;;5.70;99.90;;;;;;6286445;22;20055;-89
2021/10/23 05:24:59;;;;;;;9.50;3.53;;;5.70;99.90;;;;;;6266831;22;20054;-89
2021/10/23 05:27:48;;;;;;;10.05;4.10;;;5.70;99.90;;;;;;6310341;22;20024;-87
2021/10/23 05:30:35;;;;;;;9.07;3.38;;;5.60;99.90;;;;;;6295030;22;20049;-87
2021/10/23 05:33:22;;;;;;;8.05;3.20;;;5.60;99.90;;;;;;6325160;22;20037;-88
2021/10/23 05:36:09;;;;;;;9.95;3.72;;;5.50;99.90;;;;;;6299667;22;20034;-87
2021/10/23 05:38:59;;;;;;;13.40;3.88;;;5.50;99.90;;;;;;6289487;22;20066;-89
2021/10/23 05:41:46;;;;;;;10.45;4.38;;;5.60;99.90;;;;;;6311095;22;20063;-87
2021/10/23 05:44:34;;;;;;;9.85;3.35;;;5.60;99.90;;;;;;6265371;22;20088;-88
2021/10/23 05:47:21;;;;;;;8.20;3.78;;;5.60;99.90;;;;;;6309833;22;20178;-87
2021/10/23 05:50:12;;;;;;;10.38;3.50;;;5.50;99.90;;;;;;6311478;22;20126;-89
2021/10/23 05:52:59;;;;;;;9.65;3.60;;;5.50;99.90;;;;;;6313355;22;20034;-89
2021/10/23 06:22:15;;;;;;;9.18;3.70;;;5.60;99.90;;;;;;6126458;23;20026;-85
2021/10/23 06:25:03;;;;;;;14.25;4.55;;;5.60;99.90;;;;;;6119564;23;20040;-85
2021/10/23 06:28:06;;;;;;;11.05;4.85;;;5.60;99.90;;;;;;6121187;23;20048;-84
2021/10/23 06:30:55;;;;;;;13.40;4.65;;;5.60;99.90;;;;;;6172650;23;20095;-84
2021/10/23 06:33:42;;;;;;;8.68;4.38;;;5.70;99.90;;;;;;6245740;22;20075;-83
2021/10/23 06:36:29;;;;;;;13.07;4.63;;;5.80;99.90;;;;;;6241170;23;20024;-84
2021/10/23 06:39:21;;;;;;;7.38;3.22;;;5.90;99.90;;;;;;6245584;23;20051;-85
2021/10/23 06:42:13;;;;;;;17.23;3.85;;;6.00;99.90;;;;;;6245705;23;20085;-84
2021/10/23 06:45:10;;;;;;;11.18;3.95;;;6.00;99.90;;;;;;6226314;23;20032;-86
2021/10/23 06:47:57;;;;;;;13.55;4.40;;;6.10;99.90;;;;;;6244881;23;20028;-86
2021/10/23 06:50:55;;;;;;;12.02;3.85;;;6.10;99.90;;;;;;6245939;23;20038;-85
2021/10/23 06:53:44;;;;;;;14.10;3.80;;;6.20;99.90;;;;;;6244175;23;20086;-85
2021/10/23 06:56:35;;;;;;;9.18;3.45;;;6.20;99.90;;;;;;6242858;23;20028;-86
2021/10/23 06:59:28;;;;;;;10.07;3.55;;;6.30;99.90;;;;;;6205047;23;20106;-85
2021/10/23 07:02:15;;;;;;;;;;;6.30;99.90;;;;;;6246927;23;20028;-87
2021/10/23 07:05:18;;;;;;;9.57;3.35;;;6.30;99.90;;;;;;6245664;23;20019;-87
2021/10/23 07:08:11;;;;;;;8.45;3.25;;;6.20;99.90;;;;;;6224356;23;20028;-87
2021/10/23 07:10:58;;;;;;;8.52;3.17;;;6.20;99.90;;;;;;6247904;23;20028;-88
2021/10/23 07:13:57;;;;;;;14.07;3.35;;;6.30;99.90;;;;;;6245280;23;20019;-88
2021/10/23 07:16:45;;;;;;;10.68;2.85;;;6.30;99.90;;;;;;6246579;23;20035;-88
2021/10/23 07:19:38;;;;;;;8.50;2.92;;;6.40;99.90;;;;;;6251565;22;20102;-88
2021/10/23 07:22:38;;;;;;;13.15;3.08;;;6.40;99.90;;;;;;6263549;22;20019;-88
2021/10/23 07:25:28;;;;;;;8.98;3.20;;;6.50;99.90;;;;;;6280273;22;20099;-88
2021/10/23 07:28:16;;;;;;;9.63;2.90;;;6.60;99.90;;;;;;6239779;22;20007;-87
2021/10/23 07:31:05;;;;;;;8.93;2.97;;;6.60;99.90;;;;;;6278819;22;20074;-88
2021/10/23 07:33:53;;;;;;;8.40;3.47;;;6.70;99.90;;;;;;6279641;22;20031;-88
2021/10/23 07:36:40;;;;;;;10.45;3.22;;;6.80;99.90;;;;;;6237900;22;20496;-88
2021/10/23 07:39:28;;;;;;;16.85;3.05;;;6.90;99.90;;;;;;6279030;22;20123;-88
2021/10/23 07:42:18;;;;;;;9.65;2.65;;;7.10;99.90;;;;;;6276542;22;20158;-87
2021/10/23 07:45:17;;;;;;;6.68;2.60;;;7.20;99.90;;;;;;6278876;22;20059;-88
2021/10/23 07:48:08;;;;;;;7.50;2.38;;;7.40;99.90;;;;;;6257411;22;20027;-88
2021/10/23 07:50:58;;;;;;;10.85;2.80;;;7.60;99.90;;;;;;6283366;22;20027;-85
2021/10/23 07:53:47;;;;;;;11.30;3.05;;;7.70;99.90;;;;;;6278735;22;20019;-85
2021/10/23 07:56:42;;;;;;;9.60;2.70;;;7.80;99.90;;;;;;6278006;22;20027;-84
2021/10/23 07:59:31;;;;;;;8.35;2.88;;;7.90;99.90;;;;;;6279537;22;20031;-85
2021/10/23 08:02:20;;;;;;;10.68;2.78;;;8.10;99.90;;;;;;6288996;22;20363;-84
2021/10/23 08:05:11;;;;;;;9.70;2.72;;;8.70;99.90;;;;;;6289547;22;20023;-85
2021/10/23 08:08:03;;;;;;;8.85;2.50;;;9.10;99.90;;;;;;6288077;22;20028;-85
2021/10/23 08:10:50;;;;;;;7.60;2.42;;;9.30;99.90;;;;;;6289166;22;20482;-87
2021/10/23 08:13:37;;;;;;;12.95;2.83;;;9.50;99.90;;;;;;6296133;22;20161;-88
2021/10/23 08:16:25;;;;;;;10.80;2.65;;;9.60;99.90;;;;;;6272660;22;20020;-86
2021/10/23 08:19:12;;;;;;;8.38;2.88;;;9.70;99.90;;;;;;6289066;22;20023;-88
2021/10/23 08:22:00;;;;;;;7.88;2.58;;;9.90;99.90;;;;;;6290084;22;20074;-87
2021/10/23 08:24:48;;;;;;;6.70;2.60;;;9.90;99.90;;;;;;6286465;22;20107;-87
2021/10/23 08:27:39;;;;;;;10.85;2.90;;;10.00;99.90;;;;;;6281922;22;20031;-87
2021/10/23 08:30:26;;;;;;;8.60;2.97;;;10.20;99.90;;;;;;6279053;22;20611;-87
2021/10/23 08:33:14;;;;;;;9.45;2.90;;;10.40;99.90;;;;;;6281950;22;20119;-88
2021/10/23 08:36:01;;;;;;;6.95;2.58;;;10.70;99.90;;;;;;6280095;22;20093;-86
2021/10/23 08:38:49;;;;;;;8.88;2.35;;;10.80;99.90;;;;;;6259516;22;20032;-88
2021/10/23 08:41:37;;;;;;;8.75;2.72;;;10.70;99.90;;;;;;6258117;22;20027;-88
2021/10/23 08:44:29;;;;;;;8.00;2.72;;;10.70;99.90;;;;;;6279530;22;20105;-88
2021/10/23 08:47:20;;;;;;;;;;;10.80;99.90;;;;;;6284516;22;20035;-87
2021/10/23 08:50:10;;;;;;;4.70;2.47;;;11.10;99.90;;;;;;6281469;22;19926;-86
2021/10/23 08:53:00;;;;;;;8.00;2.45;;;11.20;99.90;;;;;;6283483;22;20430;-88
2021/10/23 08:55:52;;;;;;;7.13;2.47;;;11.00;99.90;;;;;;6279962;22;20106;-89
2021/10/23 08:58:40;;;;;;;7.05;2.25;;;11.20;99.90;;;;;;6282744;22;20023;-87
2021/10/23 09:01:29;;;;;;;8.73;2.60;;;11.50;99.90;;;;;;6277363;22;20422;-87
2021/10/23 09:04:22;;;;;;;4.93;1.90;;;11.60;99.90;;;;;;6280185;22;20058;-88
2021/10/23 09:07:16;;;;;;;11.90;2.40;;;11.70;99.90;;;;;;6258575;22;20019;-88
2021/10/23 09:10:06;;;;;;;9.05;2.20;;;11.80;99.90;;;;;;6276728;22;20031;-87
2021/10/23 09:13:32;;;;;;;7.80;2.25;;;12.10;99.90;;;;;;6255372;22;20019;-88
2021/10/23 09:16:19;;;;;;;4.03;1.55;;;13.30;99.90;;;;;;6263912;22;20024;-88
2021/10/23 09:19:12;;;;;;;13.70;2.70;;;14.70;96.00;;;;;;6278946;22;20090;-88
2021/10/23 09:22:04;;;;;;;5.28;1.88;;;16.00;90.10;;;;;;6254557;22;20027;-88
2021/10/23 09:25:09;;;;;;;5.50;2.15;;;16.70;82.30;;;;;;6276201;22;20391;-90
2021/10/23 09:28:09;;;;;;;6.35;2.22;;;17.60;76.70;;;;;;6276097;22;20020;-88
2021/10/23 09:30:58;;;;;;;7.50;2.10;;;19.00;66.80;;;;;;6281182;22;20023;-89
2021/10/23 09:34:01;;;;;;;6.15;1.55;;;19.70;61.80;;;;;;6278878;22;20485;-88
2021/10/23 09:36:54;;;;;;;5.85;1.45;;;20.50;58.50;;;;;;6279452;22;20393;-89
2021/10/23 09:40:08;;;;;;;5.88;1.70;;;20.80;55.00;;;;;;6261686;22;20386;-88
2021/10/23 09:43:14;;;;;;;5.20;1.75;;;20.90;54.20;;;;;;6276167;22;20024;-88
2021/10/23 09:46:11;;;;;;;7.53;2.00;;;21.10;53.40;;;;;;6276770;22;20032;-89
2021/10/23 09:49:00;;;;;;;5.45;1.85;;;22.10;51.10;;;;;;6256834;22;20019;-88
2021/10/23 09:52:06;;;;;;;7.45;1.90;;;21.80;51.30;;;;;;6257888;22;20094;-89
2021/10/23 09:55:07;;;;;;;6.03;1.50;;;21.50;51.60;;;;;;6256171;22;20095;-89
2021/10/23 09:58:11;;;;;;;6.28;1.77;;;22.50;49.10;;;;;;6276089;22;20023;-88
2021/10/23 10:01:05;;;;;;;4.95;1.67;;;22.70;47.80;;;;;;6278299;22;20126;-90
2021/10/23 10:03:56;;;;;;;5.22;1.70;;;22.20;49.20;;;;;;6275744;22;20427;-88
2021/10/23 10:06:46;;;;;;;4.07;1.30;;;22.00;49.80;;;;;;6254577;22;20019;-89
2021/10/23 10:09:38;;;;;;;2.45;0.75;;;22.20;48.20;;;;;;6277874;22;20338;-86
2021/10/23 10:12:31;;;;;;;4.03;1.23;;;21.80;48.90;;;;;;6256737;22;20043;-88
2021/10/23 10:15:23;;;;;;;5.45;1.20;;;21.80;48.40;;;;;;6277093;22;20024;-87
2021/10/23 10:18:13;;;;;;;1.95;1.05;;;22.50;44.70;;;;;;6237633;22;20023;-88
2021/10/23 10:21:06;;;;;;;4.25;1.25;;;22.10;45.30;;;;;;6277961;22;20070;-90
2021/10/23 10:23:56;;;;;;;3.97;1.30;;;22.40;46.10;;;;;;6277531;22;20237;-88
2021/10/23 10:27:02;;;;;;;3.15;1.30;;;22.10;47.40;;;;;;6279456;22;20024;-89
2021/10/23 10:29:59;;;;;;;6.07;1.35;;;22.80;48.10;;;;;;6282381;22;20281;-89
2021/10/23 10:32:50;;;;;;;4.82;1.25;;;24.30;44.10;;;;;;6277929;22;20027;-89
2021/10/23 10:44:20;;;;;;;3.60;1.05;;;22.40;42.70;;;;;;6281411;22;20035;-88
2021/10/23 10:47:09;;;;;;;2.25;1.00;;;19.60;47.70;;;;;;6277988;22;20043;-86
2021/10/23 10:49:59;;;;;;;4.72;1.65;;;18.40;50.90;;;;;;6285006;22;20079;-84
2021/10/23 10:52:49;;;;;;;3.50;1.50;;;17.30;54.60;;;;;;6285518;22;20035;-87
2021/10/23 10:55:43;;;;;;;5.55;1.52;;;16.60;57.00;;;;;;6278870;22;20050;-90
2021/10/23 10:58:50;;;;;;;2.97;1.05;;;15.70;60.10;;;;;;6280275;22;20035;-88
2021/10/23 11:01:40;;;;;;;4.70;1.30;;;14.90;63.50;;;;;;6281487;22;20319;-88
2021/10/23 11:04:29;;;;;;;2.63;1.15;;;14.20;63.80;;;;;;6278989;22;20028;-89
2021/10/23 11:07:16;;;;;;;3.10;1.38;;;13.80;66.80;;;;;;6280059;22;20027;-87
2021/10/23 11:10:06;;;;;;;4.88;1.60;;;13.30;69.40;;;;;;6278049;22;20019;-88
2021/10/23 11:13:26;;;;;;;5.47;1.58;;;13.00;71.20;;;;;;6282577;22;20024;-88
2021/10/23 11:16:28;;;;;;;2.42;1.10;;;12.60;72.00;;;;;;6282525;22;20067;-88
2021/10/23 11:19:27;;;;;;;4.40;1.40;;;12.50;73.80;;;;;;6280770;22;20042;-88
2021/10/23 11:22:28;;;;;;;2.85;1.30;;;12.60;74.90;;;;;;6258876;22;20038;-88
2021/10/23 11:25:17;;;;;;;5.78;1.50;;;12.60;74.60;;;;;;6280495;22;20036;-88
2021/10/23 11:28:11;;;;;;;3.50;1.27;;;12.60;75.70;;;;;;6239144;22;20082;-87
2021/10/23 11:31:03;;;;;;;3.42;1.50;;;12.90;77.50;;;;;;6278497;22;20024;-88
2021/10/23 11:33:50;;;;;;;4.18;1.67;;;13.30;76.70;;;;;;6282812;22;20049;-88
2021/10/23 11:36:39;;;;;;;5.95;1.90;;;13.30;76.20;;;;;;6281888;22;20020;-89
2021/10/23 11:39:35;;;;;;;3.75;1.88;;;13.00;78.50;;;;;;6283933;22;20028;-89
2021/10/23 11:42:28;;;;;;;5.93;2.20;;;12.80;80.30;;;;;;6284098;22;20035;-87
2021/10/23 11:45:32;;;;;;;5.10;1.80;;;12.70;81.60;;;;;;6280536;22;20103;-87
2021/10/23 11:48:21;;;;;;;5.75;1.70;;;12.70;82.10;;;;;;6281994;22;20028;-88
2021/10/23 11:51:08;;;;;;;5.22;1.88;;;13.00;81.80;;;;;;6281947;22;20088;-87
2021/10/23 11:54:01;;;;;;;12.55;2.08;;;13.00;79.40;;;;;;6281317;22;20093;-88
2021/10/23 11:56:51;;;;;;;4.22;2.00;;;13.00;78.40;;;;;;6281756;22;20093;-88
2021/10/23 11:59:38;;;;;;;7.50;2.22;;;13.40;78.00;;;;;;6280583;22;20518;-88
2021/10/23 12:02:45;;;;;;;10.23;2.10;;;13.50;76.50;;;;;;6257949;22;20434;-88
2021/10/23 12:05:41;;;;;;;3.83;1.38;;;14.20;73.80;;;;;;6281332;22;20027;-87
2021/10/23 12:08:29;;;;;;;5.97;1.50;;;15.90;66.20;;;;;;6283715;22;20035;-88
2021/10/23 12:11:23;;;;;;;5.45;1.65;;;17.80;61.10;;;;;;6286143;22;20016;-89
2021/10/23 12:14:15;;;;;;;4.60;1.38;;;19.40;55.10;;;;;;6280372;22;20078;-87
2021/10/23 12:17:03;;;;;;;5.43;1.23;;;20.20;53.70;;;;;;6283105;22;20023;-88
2021/10/23 12:19:51;;;;;;;3.67;1.20;;;21.10;49.00;;;;;;6286521;22;20028;-88
2021/10/23 12:22:38;;;;;;;3.38;1.15;;;21.50;46.00;;;;;;6259411;22;20051;-90
2021/10/23 12:25:34;;;;;;;2.63;1.13;;;20.10;49.40;;;;;;6282607;22;20024;-88
2021/10/23 12:28:25;;;;;;;5.88;1.30;;;17.40;54.10;;;;;;6286829;22;20338;-88
2021/10/23 12:31:13;;;;;;;5.72;1.55;;;15.80;57.80;;;;;;6261962;22;20032;-88
2021/10/23 12:34:03;;;;;;;5.75;1.80;;;14.80;61.00;;;;;;6279854;22;20103;-87
2021/10/23 12:36:53;;;;;;;6.85;1.73;;;14.20;62.40;;;;;;6276402;22;20074;-89
2021/10/23 12:39:42;;;;;;;4.05;1.70;;;13.70;63.70;;;;;;6280292;22;20291;-87
2021/10/23 12:42:31;;;;;;;5.40;1.70;;;13.30;66.90;;;;;;6284685;22;20024;-89
2021/10/23 12:45:28;;;;;;;4.30;1.50;;;13.10;69.50;;;;;;6282314;22;20035;-87
2021/10/23 12:48:17;;;;;;;5.63;1.50;;;12.80;70.80;;;;;;6285071;22;20398;-88
2021/10/23 12:51:05;;;;;;;4.15;1.52;;;12.60;73.00;;;;;;6285666;22;20031;-88
2021/10/23 12:53:52;;;;;;;5.70;1.80;;;12.50;72.60;;;;;;6286995;22;20084;-89
2021/10/23 12:56:39;;;;;;;2.55;1.50;;;12.50;71.30;;;;;;6288397;22;20364;-88
2021/10/23 12:59:26;;;;;;;3.30;1.58;;;12.50;71.10;;;;;;6291692;22;20071;-89
2021/10/23 13:02:13;;;;;;;6.10;2.83;;;12.50;71.20;;;;;;6292778;22;20102;-88
2021/10/23 13:05:06;;;;;;;5.70;2.72;;;12.40;72.90;;;;;;6289945;22;20027;-89
2021/10/23 13:07:53;;;;;;;7.28;1.95;;;12.50;74.60;;;;;;6298886;22;20130;-87
2021/10/23 13:10:43;;;;;;;5.50;2.10;;;12.40;76.80;;;;;;6290323;22;20046;-87
2021/10/23 13:13:36;;;;;;;6.68;2.35;;;12.40;77.80;;;;;;6285794;22;20054;-88
2021/10/23 13:16:28;;;;;;;4.30;1.90;;;12.20;79.30;;;;;;6265262;22;20024;-87
2021/10/23 13:19:15;;;;;;;3.67;1.98;;;12.30;80.00;;;;;;6259873;22;20085;-88
2021/10/23 13:22:05;;;;;;;11.10;2.97;;;12.20;79.30;;;;;;6254743;22;20024;-88
2021/10/23 13:24:52;;;;;;;5.63;2.65;;;12.30;80.20;;;;;;6274407;22;20085;-89
2021/10/23 13:27:41;;;;;;;5.15;2.20;;;12.20;79.00;;;;;;6273685;22;20064;-87
2021/10/23 13:30:31;;;;;;;4.13;1.88;;;12.10;79.70;;;;;;6274236;22;20047;-86
2021/10/23 13:33:18;;;;;;;5.25;2.97;;;11.90;77.90;;;;;;6275653;22;20402;-88
2021/10/23 13:36:09;;;;;;;2.05;1.63;;;11.80;74.00;;;;;;6274048;22;20016;-87
2021/10/23 13:38:56;;;;;;;7.50;1.83;;;11.80;74.40;;;;;;6230764;22;20055;-87
2021/10/23 13:41:44;;;;;;;5.70;2.65;;;11.80;74.90;;;;;;6274757;22;20077;-88
2021/10/23 13:44:32;;;;;;;5.22;2.40;;;11.80;75.50;;;;;;6276416;22;20120;-88
2021/10/23 13:47:22;;;;;;;2.83;2.00;;;11.80;75.70;;;;;;6275402;22;20487;-88
2021/10/23 13:50:10;;;;;;;6.25;2.53;;;11.70;77.50;;;;;;6273903;22;20081;-88
2021/10/23 13:52:58;;;;;;;7.95;2.83;;;11.70;76.60;;;;;;6252332;22;20078;-86
2021/10/23 13:55:45;;;;;;;6.78;2.22;;;11.60;78.10;;;;;;6255023;22;20020;-88
2021/10/23 13:58:35;;;;;;;6.15;2.10;;;11.50;79.40;;;;;;6253274;22;20120;-87
2021/10/23 14:01:27;;;;;;;5.70;2.38;;;11.50;79.30;;;;;;6275320;22;20200;-88
2021/10/23 14:04:15;;;;;;;4.82;2.40;;;11.40;80.40;;;;;;6256030;22;20083;-87
2021/10/23 14:07:04;;;;;;;8.85;2.55;;;11.40;81.20;;;;;;6230637;22;20031;-87
2021/10/23 14:09:55;;;;;;;8.48;2.50;;;11.40;80.00;;;;;;6278968;22;20095;-88
2021/10/23 14:12:44;;;;;;;7.80;2.28;;;11.60;80.60;;;;;;6278331;22;20159;-88
2021/10/23 14:15:34;;;;;;;3.95;2.22;;;11.60;80.40;;;;;;6258815;22;20081;-88
2021/10/23 14:18:27;;;;;;;4.63;2.10;;;11.60;79.20;;;;;;6254190;22;20069;-88
2021/10/23 14:21:17;;;;;;;5.18;2.15;;;11.50;79.00;;;;;;6278968;22;20113;-87
2021/10/23 14:24:07;;;;;;;7.75;1.88;;;11.30;80.40;;;;;;6234716;22;20103;-88
2021/10/23 14:27:02;;;;;;;4.55;2.08;;;11.10;81.10;;;;;;6277530;22;20332;-89
2021/10/23 14:29:50;;;;;;;3.53;1.70;;;11.00;80.90;;;;;;6282992;22;20024;-88
2021/10/23 14:32:38;;;;;;;7.00;2.47;;;10.90;81.60;;;;;;6277376;22;20028;-87
2021/10/23 14:35:32;;;;;;;9.32;2.58;;;10.90;81.20;;;;;;6279227;22;20103;-87
2021/10/23 14:38:19;;;;;;;8.82;2.58;;;10.90;82.50;;;;;;6255159;22;20023;-87
2021/10/23 14:41:09;;;;;;;7.05;2.25;;;10.90;83.10;;;;;;6277419;22;20023;-89
2021/10/23 14:43:56;;;;;;;5.93;2.17;;;10.90;83.50;;;;;;6276282;22;20039;-89
2021/10/23 14:46:43;;;;;;;4.30;1.92;;;10.90;84.50;;;;;;6254180;22;20035;-87
2021/10/23 14:49:30;;;;;;;8.02;2.28;;;10.80;84.70;;;;;;6252176;22;20024;-87
2021/10/23 14:52:19;;;;;;;4.10;1.90;;;10.80;84.80;;;;;;6274984;22;20031;-87
2021/10/23 14:55:07;;;;;;;6.75;2.45;;;10.70;85.90;;;;;;6254632;22;20031;-88
2021/10/23 14:57:57;;;;;;;6.40;2.28;;;10.60;86.50;;;;;;6254359;22;20027;-90
2021/10/23 15:00:46;;;;;;;5.90;2.40;;;10.50;86.70;;;;;;6252428;22;20027;-88
2021/10/23 15:03:35;;;;;;;9.27;3.03;;;10.30;88.70;;;;;;6276813;22;20427;-88
2021/10/23 15:06:23;;;;;;;4.90;3.00;;;10.20;90.10;;;;;;6243491;22;20338;-89
2021/10/23 15:09:11;;;;;;;5.93;3.08;;;10.10;90.00;;;;;;6285674;22;20058;-89
2021/10/23 15:12:01;;;;;;;5.90;2.35;;;10.00;90.50;;;;;;6257856;22;20023;-89
2021/10/23 15:14:49;;;;;;;7.53;2.40;;;9.90;90.80;;;;;;6279334;22;20024;-88
2021/10/23 15:17:39;;;;;;;7.20;4.25;;;9.70;90.80;;;;;;6281179;22;20051;-88
2021/10/23 15:20:27;;;;;;;8.68;3.05;;;9.70;91.10;;;;;;6275198;22;20031;-89
2021/10/23 15:23:17;;;;;;;6.45;2.58;;;9.70;91.50;;;;;;6301761;22;20120;-90
2021/10/23 15:26:04;;;;;;;4.50;2.13;;;9.90;91.60;;;;;;6285966;22;20137;-89